KGRN

Details ICAO KGRN
Name GORDON MUNI
Region United States
Timezone America/Denver (UTC-7.0)
Plans Departing 0
Arriving 0
Stats Elevation 3,562 ft / 1,086 m (AMSL)
Location 42.805514° -102.176128°
Runways 2
Magnetic Variation 6.813° E
Sunrise 2017-12-13 14:12:33 UTC / 2017-12-13 07:12:33 Local
Sunset 2017-12-13 23:16:22 UTC / 2017-12-13 16:16:22 Local
Advertisement - Login to hide

Runways

ID Width Length Bearing (true) Bearing (mag) Surface Threshold Offset Overrun Length
04 75 ft / 23 m 5,207 ft / 1,587 m 48.60° 41.79° Asphalt 0 ft / 0 m 0 ft / 0 m
11 49 ft / 15 m 2,315 ft / 706 m 122.81° 116.00° Asphalt 0 ft / 0 m 0 ft / 0 m
22 75 ft / 23 m 5,207 ft / 1,587 m 228.60° 221.79° Asphalt 0 ft / 0 m 0 ft / 0 m
29 49 ft / 15 m 2,315 ft / 706 m 302.82° 296.01° Asphalt 0 ft / 0 m 0 ft / 0 m

Map

Weather


0- 5 10 15 20 25 30 35+ Temperature / ° C

Clouds and Precipitation
Forecast for 2017-12-13 12:00 UTC. Updated 12 minutes ago

Ground ~20,000 ft ~40,000 ft Winds

METAR

KGRN 130735Z AUTO 29009KT 10SM OVC065 06/M07 A2991 RMK AO2 T00631068

TAF

Not found

Frequencies

Unicom 122.80 MHz CTAF/UNICOM
Warning: Do not use this data for real-world aviation or navigation. No guarantee of current accuracy is given.